sensor_id;sensor_type;location;lat;lon;timestamp;P1;durP1;ratioP1;P2;durP2;ratioP2
45366;SDS011;31100;55.848;37.636;2023-05-01T00:00:59;6.90;;;5.22;;
45366;SDS011;31100;55.848;37.636;2023-05-01T00:03:25;7.00;;;5.32;;
45366;SDS011;31100;55.848;37.636;2023-05-01T00:05:51;7.43;;;5.28;;
45366;SDS011;31100;55.848;37.636;2023-05-01T00:08:16;7.07;;;5.38;;
45366;SDS011;31100;55.848;37.636;2023-05-01T00:10:41;7.20;;;5.78;;
45366;SDS011;31100;55.848;37.636;2023-05-01T00:13:07;6.55;;;4.80;;
45366;SDS011;31100;55.848;37.636;2023-05-01T00:15:33;6.80;;;4.60;;
45366;SDS011;31100;55.848;37.636;2023-05-01T00:17:59;8.63;;;5.22;;
45366;SDS011;31100;55.848;37.636;2023-05-01T00:20:25;6.93;;;4.95;;
45366;SDS011;31100;55.848;37.636;2023-05-01T00:22:54;8.50;;;4.80;;
45366;SDS011;31100;55.848;37.636;2023-05-01T00:25:19;7.90;;;5.07;;
45366;SDS011;31100;55.848;37.636;2023-05-01T00:27:45;6.85;;;4.68;;
45366;SDS011;31100;55.848;37.636;2023-05-01T00:30:11;6.53;;;4.80;;
45366;SDS011;31100;55.848;37.636;2023-05-01T00:32:37;6.95;;;4.70;;
45366;SDS011;31100;55.848;37.636;2023-05-01T00:35:02;6.57;;;4.75;;
45366;SDS011;31100;55.848;37.636;2023-05-01T00:37:28;6.25;;;4.53;;
45366;SDS011;31100;55.848;37.636;2023-05-01T00:39:53;6.22;;;4.43;;
45366;SDS011;31100;55.848;37.636;2023-05-01T00:42:19;6.32;;;4.55;;
45366;SDS011;31100;55.848;37.636;2023-05-01T00:44:45;5.90;;;4.30;;
45366;SDS011;31100;55.848;37.636;2023-05-01T00:47:10;6.60;;;4.65;;
45366;SDS011;31100;55.848;37.636;2023-05-01T00:49:36;5.78;;;3.97;;
45366;SDS011;31100;55.848;37.636;2023-05-01T00:52:01;6.07;;;3.67;;
45366;SDS011;31100;55.848;37.636;2023-05-01T00:54:27;5.43;;;4.13;;
45366;SDS011;31100;55.848;37.636;2023-05-01T00:56:53;5.78;;;4.25;;
45366;SDS011;31100;55.848;37.636;2023-05-01T00:59:19;6.03;;;4.20;;
45366;SDS011;31100;55.848;37.636;2023-05-01T01:01:44;6.20;;;3.97;;
45366;SDS011;31100;55.848;37.636;2023-05-01T01:04:10;5.70;;;3.60;;
45366;SDS011;31100;55.848;37.636;2023-05-01T01:09:22;4.93;;;3.47;;
45366;SDS011;31100;55.848;37.636;2023-05-01T01:31:08;3.85;;;2.88;;
45366;SDS011;31100;55.848;37.636;2023-05-01T01:36:33;4.53;;;3.50;;
45366;SDS011;31100;55.848;37.636;2023-05-01T01:41:35;4.18;;;3.00;;
45366;SDS011;31100;55.848;37.636;2023-05-01T01:44:08;4.90;;;3.50;;
45366;SDS011;31100;55.848;37.636;2023-05-01T01:46:39;5.05;;;3.50;;
45366;SDS011;31100;55.848;37.636;2023-05-01T01:49:06;4.28;;;3.50;;
45366;SDS011;31100;55.848;37.636;2023-05-01T01:51:36;4.97;;;3.50;;
45366;SDS011;31100;55.848;37.636;2023-05-01T01:54:04;5.78;;;4.10;;
45366;SDS011;31100;55.848;37.636;2023-05-01T01:56:30;5.53;;;3.75;;
45366;SDS011;31100;55.848;37.636;2023-05-01T01:58:57;5.07;;;3.72;;
45366;SDS011;31100;55.848;37.636;2023-05-01T02:01:25;4.65;;;3.72;;
45366;SDS011;31100;55.848;37.636;2023-05-01T02:03:51;5.70;;;4.10;;
45366;SDS011;31100;55.848;37.636;2023-05-01T02:06:17;5.38;;;3.97;;
45366;SDS011;31100;55.848;37.636;2023-05-01T02:08:43;5.85;;;3.70;;
45366;SDS011;31100;55.848;37.636;2023-05-01T02:11:12;4.85;;;3.83;;
45366;SDS011;31100;55.848;37.636;2023-05-01T02:13:38;4.97;;;4.10;;
45366;SDS011;31100;55.848;37.636;2023-05-01T02:16:05;4.28;;;3.42;;
45366;SDS011;31100;55.848;37.636;2023-05-01T02:18:31;5.18;;;3.75;;
45366;SDS011;31100;55.848;37.636;2023-05-01T02:20:57;8.20;;;3.80;;
45366;SDS011;31100;55.848;37.636;2023-05-01T02:23:24;5.20;;;3.60;;
45366;SDS011;31100;55.848;37.636;2023-05-01T02:25:51;6.13;;;3.90;;
45366;SDS011;31100;55.848;37.636;2023-05-01T02:28:20;4.60;;;3.30;;
45366;SDS011;31100;55.848;37.636;2023-05-01T02:30:47;6.38;;;3.65;;
45366;SDS011;31100;55.848;37.636;2023-05-01T02:33:13;5.15;;;3.50;;
45366;SDS011;31100;55.848;37.636;2023-05-01T02:35:42;4.15;;;3.40;;
45366;SDS011;31100;55.848;37.636;2023-05-01T02:38:11;4.68;;;3.40;;
45366;SDS011;31100;55.848;37.636;2023-05-01T02:40:37;6.70;;;3.63;;
45366;SDS011;31100;55.848;37.636;2023-05-01T02:43:05;4.97;;;3.72;;
45366;SDS011;31100;55.848;37.636;2023-05-01T02:45:33;5.05;;;3.47;;
45366;SDS011;31100;55.848;37.636;2023-05-01T02:48:02;4.82;;;3.60;;
45366;SDS011;31100;55.848;37.636;2023-05-01T02:50:30;5.25;;;3.40;;
45366;SDS011;31100;55.848;37.636;2023-05-01T02:52:55;5.15;;;3.80;;
45366;SDS011;31100;55.848;37.636;2023-05-01T02:55:22;5.32;;;4.25;;
45366;SDS011;31100;55.848;37.636;2023-05-01T02:57:49;5.13;;;3.85;;
45366;SDS011;31100;55.848;37.636;2023-05-01T03:00:15;6.57;;;4.00;;
45366;SDS011;31100;55.848;37.636;2023-05-01T03:02:41;5.72;;;3.78;;
45366;SDS011;31100;55.848;37.636;2023-05-01T03:05:07;5.90;;;4.03;;
45366;SDS011;31100;55.848;37.636;2023-05-01T03:07:33;5.35;;;3.67;;
45366;SDS011;31100;55.848;37.636;2023-05-01T03:10:02;5.20;;;3.85;;
45366;SDS011;31100;55.848;37.636;2023-05-01T03:12:28;4.85;;;3.55;;
45366;SDS011;31100;55.848;37.636;2023-05-01T03:14:56;4.43;;;3.40;;
45366;SDS011;31100;55.848;37.636;2023-05-01T03:17:22;5.95;;;3.85;;
45366;SDS011;31100;55.848;37.636;2023-05-01T03:19:48;5.20;;;3.42;;
45366;SDS011;31100;55.848;37.636;2023-05-01T03:22:14;6.07;;;3.40;;
45366;SDS011;31100;55.848;37.636;2023-05-01T03:24:40;6.43;;;3.80;;
45366;SDS011;31100;55.848;37.636;2023-05-01T03:27:05;4.68;;;3.40;;
45366;SDS011;31100;55.848;37.636;2023-05-01T03:29:32;3.60;;;2.85;;
45366;SDS011;31100;55.848;37.636;2023-05-01T03:31:58;4.68;;;3.40;;
45366;SDS011;31100;55.848;37.636;2023-05-01T03:34:24;5.22;;;3.17;;
45366;SDS011;31100;55.848;37.636;2023-05-01T03:36:49;5.55;;;3.47;;
45366;SDS011;31100;55.848;37.636;2023-05-01T03:39:15;5.10;;;3.25;;
45366;SDS011;31100;55.848;37.636;2023-05-01T03:41:40;6.32;;;3.45;;
45366;SDS011;31100;55.848;37.636;2023-05-01T03:44:06;4.68;;;3.30;;
45366;SDS011;31100;55.848;37.636;2023-05-01T03:46:31;4.55;;;3.60;;
45366;SDS011;31100;55.848;37.636;2023-05-01T03:48:57;5.07;;;3.67;;
45366;SDS011;31100;55.848;37.636;2023-05-01T03:51:22;5.18;;;4.00;;
45366;SDS011;31100;55.848;37.636;2023-05-01T03:53:48;9.18;;;4.32;;
45366;SDS011;31100;55.848;37.636;2023-05-01T03:56:13;5.90;;;3.58;;
45366;SDS011;31100;55.848;37.636;2023-05-01T03:58:39;7.78;;;4.45;;
45366;SDS011;31100;55.848;37.636;2023-05-01T04:01:04;6.18;;;4.07;;
45366;SDS011;31100;55.848;37.636;2023-05-01T04:03:30;5.65;;;4.22;;
45366;SDS011;31100;55.848;37.636;2023-05-01T04:05:55;5.57;;;4.22;;
45366;SDS011;31100;55.848;37.636;2023-05-01T04:08:21;5.25;;;4.18;;
45366;SDS011;31100;55.848;37.636;2023-05-01T04:10:46;6.28;;;3.97;;
45366;SDS011;31100;55.848;37.636;2023-05-01T04:13:12;4.82;;;3.90;;
45366;SDS011;31100;55.848;37.636;2023-05-01T04:15:37;4.68;;;3.75;;
45366;SDS011;31100;55.848;37.636;2023-05-01T04:18:03;5.43;;;4.05;;
45366;SDS011;31100;55.848;37.636;2023-05-01T04:20:28;4.55;;;3.58;;
45366;SDS011;31100;55.848;37.636;2023-05-01T04:22:54;4.78;;;3.72;;
45366;SDS011;31100;55.848;37.636;2023-05-01T04:25:19;4.68;;;3.63;;
45366;SDS011;31100;55.848;37.636;2023-05-01T04:27:45;3.72;;;3.00;;
45366;SDS011;31100;55.848;37.636;2023-05-01T04:30:11;4.90;;;3.30;;
45366;SDS011;31100;55.848;37.636;2023-05-01T04:32:36;3.83;;;2.75;;
45366;SDS011;31100;55.848;37.636;2023-05-01T04:35:02;6.28;;;4.45;;
45366;SDS011;31100;55.848;37.636;2023-05-01T04:37:28;4.57;;;3.20;;
45366;SDS011;31100;55.848;37.636;2023-05-01T04:39:54;4.22;;;3.20;;
45366;SDS011;31100;55.848;37.636;2023-05-01T04:42:40;4.20;;;3.20;;
45366;SDS011;31100;55.848;37.636;2023-05-01T04:45:08;4.10;;;3.00;;
45366;SDS011;31100;55.848;37.636;2023-05-01T04:47:34;5.75;;;3.05;;
45366;SDS011;31100;55.848;37.636;2023-05-01T04:49:59;5.63;;;3.92;;
45366;SDS011;31100;55.848;37.636;2023-05-01T04:52:25;6.57;;;3.72;;
45366;SDS011;31100;55.848;37.636;2023-05-01T04:54:50;6.90;;;3.65;;
45366;SDS011;31100;55.848;37.636;2023-05-01T04:57:16;4.93;;;3.38;;
45366;SDS011;31100;55.848;37.636;2023-05-01T04:59:41;5.72;;;3.40;;
45366;SDS011;31100;55.848;37.636;2023-05-01T05:02:07;6.03;;;3.80;;
45366;SDS011;31100;55.848;37.636;2023-05-01T05:04:33;6.07;;;3.70;;
45366;SDS011;31100;55.848;37.636;2023-05-01T05:06:58;7.72;;;4.82;;
45366;SDS011;31100;55.848;37.636;2023-05-01T05:09:25;5.72;;;4.28;;
45366;SDS011;31100;55.848;37.636;2023-05-01T05:11:51;6.35;;;4.25;;
45366;SDS011;31100;55.848;37.636;2023-05-01T05:14:17;6.35;;;4.00;;
45366;SDS011;31100;55.848;37.636;2023-05-01T05:16:43;5.35;;;3.50;;
45366;SDS011;31100;55.848;37.636;2023-05-01T05:19:08;8.05;;;4.95;;
45366;SDS011;31100;55.848;37.636;2023-05-01T05:21:34;7.60;;;5.15;;
45366;SDS011;31100;55.848;37.636;2023-05-01T05:23:59;5.50;;;3.60;;
45366;SDS011;31100;55.848;37.636;2023-05-01T05:26:25;5.50;;;3.95;;
45366;SDS011;31100;55.848;37.636;2023-05-01T05:28:51;4.70;;;3.33;;
45366;SDS011;31100;55.848;37.636;2023-05-01T05:31:16;6.10;;;3.67;;
45366;SDS011;31100;55.848;37.636;2023-05-01T05:33:42;4.97;;;4.15;;
45366;SDS011;31100;55.848;37.636;2023-05-01T05:36:08;8.05;;;5.68;;
45366;SDS011;31100;55.848;37.636;2023-05-01T05:38:37;5.90;;;4.50;;
45366;SDS011;31100;55.848;37.636;2023-05-01T05:41:04;6.63;;;4.70;;
45366;SDS011;31100;55.848;37.636;2023-05-01T05:43:30;7.15;;;4.30;;
45366;SDS011;31100;55.848;37.636;2023-05-01T05:45:59;6.40;;;4.93;;
45366;SDS011;31100;55.848;37.636;2023-05-01T05:48:25;7.75;;;5.22;;
45366;SDS011;31100;55.848;37.636;2023-05-01T05:50:51;7.03;;;4.78;;
45366;SDS011;31100;55.848;37.636;2023-05-01T05:53:17;5.78;;;5.03;;
45366;SDS011;31100;55.848;37.636;2023-05-01T05:55:52;6.53;;;5.20;;
45366;SDS011;31100;55.848;37.636;2023-05-01T05:58:18;6.55;;;5.00;;
45366;SDS011;31100;55.848;37.636;2023-05-01T06:00:48;7.28;;;5.20;;
45366;SDS011;31100;55.848;37.636;2023-05-01T06:03:14;7.55;;;5.18;;
45366;SDS011;31100;55.848;37.636;2023-05-01T06:05:41;7.93;;;5.70;;
45366;SDS011;31100;55.848;37.636;2023-05-01T06:08:07;8.43;;;6.18;;
45366;SDS011;31100;55.848;37.636;2023-05-01T06:10:34;7.55;;;5.97;;
45366;SDS011;31100;55.848;37.636;2023-05-01T06:13:01;11.05;;;6.10;;
45366;SDS011;31100;55.848;37.636;2023-05-01T06:15:27;9.00;;;6.10;;
45366;SDS011;31100;55.848;37.636;2023-05-01T06:17:52;7.57;;;6.00;;
45366;SDS011;31100;55.848;37.636;2023-05-01T06:20:18;7.25;;;5.47;;
45366;SDS011;31100;55.848;37.636;2023-05-01T06:22:43;8.48;;;5.70;;
45366;SDS011;31100;55.848;37.636;2023-05-01T06:25:10;9.32;;;5.82;;
45366;SDS011;31100;55.848;37.636;2023-05-01T06:27:36;7.03;;;5.78;;
45366;SDS011;31100;55.848;37.636;2023-05-01T06:30:02;7.70;;;5.65;;
45366;SDS011;31100;55.848;37.636;2023-05-01T06:32:27;8.88;;;6.35;;
45366;SDS011;31100;55.848;37.636;2023-05-01T06:34:53;9.52;;;6.28;;
45366;SDS011;31100;55.848;37.636;2023-05-01T06:37:18;8.07;;;5.90;;
45366;SDS011;31100;55.848;37.636;2023-05-01T06:39:44;9.07;;;5.40;;
45366;SDS011;31100;55.848;37.636;2023-05-01T06:42:09;8.57;;;6.45;;
45366;SDS011;31100;55.848;37.636;2023-05-01T06:44:39;7.13;;;5.38;;
45366;SDS011;31100;55.848;37.636;2023-05-01T06:47:05;6.95;;;5.40;;
45366;SDS011;31100;55.848;37.636;2023-05-01T06:49:31;8.70;;;5.68;;
45366;SDS011;31100;55.848;37.636;2023-05-01T06:51:57;8.85;;;5.55;;
45366;SDS011;31100;55.848;37.636;2023-05-01T06:54:23;8.27;;;5.80;;
45366;SDS011;31100;55.848;37.636;2023-05-01T06:56:48;8.63;;;5.45;;
45366;SDS011;31100;55.848;37.636;2023-05-01T06:59:14;8.90;;;5.45;;
45366;SDS011;31100;55.848;37.636;2023-05-01T07:01:39;8.10;;;5.07;;
45366;SDS011;31100;55.848;37.636;2023-05-01T07:04:05;12.85;;;7.43;;
45366;SDS011;31100;55.848;37.636;2023-05-01T07:06:31;6.65;;;4.97;;
45366;SDS011;31100;55.848;37.636;2023-05-01T07:08:57;5.53;;;4.63;;
45366;SDS011;31100;55.848;37.636;2023-05-01T07:11:22;6.47;;;4.72;;
45366;SDS011;31100;55.848;37.636;2023-05-01T07:13:48;5.65;;;4.22;;
45366;SDS011;31100;55.848;37.636;2023-05-01T07:16:13;7.13;;;4.18;;
45366;SDS011;31100;55.848;37.636;2023-05-01T07:18:38;7.93;;;4.90;;
45366;SDS011;31100;55.848;37.636;2023-05-01T07:21:04;6.57;;;3.95;;
45366;SDS011;31100;55.848;37.636;2023-05-01T07:23:30;5.13;;;3.72;;
45366;SDS011;31100;55.848;37.636;2023-05-01T07:25:55;6.82;;;3.78;;
45366;SDS011;31100;55.848;37.636;2023-05-01T07:28:21;8.57;;;4.25;;
45366;SDS011;31100;55.848;37.636;2023-05-01T07:30:47;6.78;;;4.35;;
45366;SDS011;31100;55.848;37.636;2023-05-01T07:33:26;6.45;;;4.20;;
45366;SDS011;31100;55.848;37.636;2023-05-01T07:35:52;6.05;;;4.22;;
45366;SDS011;31100;55.848;37.636;2023-05-01T07:38:21;6.57;;;4.15;;
45366;SDS011;31100;55.848;37.636;2023-05-01T07:40:47;6.47;;;4.43;;
45366;SDS011;31100;55.848;37.636;2023-05-01T07:43:16;10.00;;;4.85;;
45366;SDS011;31100;55.848;37.636;2023-05-01T07:45:42;6.63;;;4.30;;
45366;SDS011;31100;55.848;37.636;2023-05-01T07:48:22;8.60;;;4.53;;
45366;SDS011;31100;55.848;37.636;2023-05-01T07:50:48;6.65;;;4.10;;
45366;SDS011;31100;55.848;37.636;2023-05-01T07:53:14;5.90;;;4.10;;
45366;SDS011;31100;55.848;37.636;2023-05-01T07:55:40;5.60;;;4.05;;
45366;SDS011;31100;55.848;37.636;2023-05-01T07:58:05;5.80;;;4.18;;
45366;SDS011;31100;55.848;37.636;2023-05-01T08:00:31;7.13;;;4.38;;
45366;SDS011;31100;55.848;37.636;2023-05-01T08:02:57;7.05;;;4.10;;
45366;SDS011;31100;55.848;37.636;2023-05-01T08:05:22;6.30;;;3.83;;
45366;SDS011;31100;55.848;37.636;2023-05-01T08:07:48;6.43;;;3.88;;
45366;SDS011;31100;55.848;37.636;2023-05-01T08:10:14;6.85;;;4.78;;
45366;SDS011;31100;55.848;37.636;2023-05-01T08:12:39;5.53;;;3.80;;
45366;SDS011;31100;55.848;37.636;2023-05-01T08:15:11;8.60;;;3.95;;
45366;SDS011;31100;55.848;37.636;2023-05-01T08:17:36;6.50;;;4.10;;
45366;SDS011;31100;55.848;37.636;2023-05-01T08:20:02;7.57;;;3.83;;
45366;SDS011;31100;55.848;37.636;2023-05-01T08:22:28;7.53;;;3.90;;
45366;SDS011;31100;55.848;37.636;2023-05-01T08:24:53;5.57;;;4.60;;
45366;SDS011;31100;55.848;37.636;2023-05-01T08:27:19;7.53;;;3.92;;
45366;SDS011;31100;55.848;37.636;2023-05-01T08:29:45;8.35;;;4.00;;
45366;SDS011;31100;55.848;37.636;2023-05-01T08:32:10;7.82;;;4.10;;
45366;SDS011;31100;55.848;37.636;2023-05-01T08:34:36;6.10;;;4.40;;
45366;SDS011;31100;55.848;37.636;2023-05-01T08:37:01;15.70;;;8.50;;
45366;SDS011;31100;55.848;37.636;2023-05-01T08:39:27;7.28;;;4.72;;
45366;SDS011;31100;55.848;37.636;2023-05-01T08:41:52;5.40;;;3.63;;
45366;SDS011;31100;55.848;37.636;2023-05-01T08:44:21;4.50;;;3.60;;
45366;SDS011;31100;55.848;37.636;2023-05-01T08:46:49;11.63;;;3.90;;
45366;SDS011;31100;55.848;37.636;2023-05-01T08:49:17;6.00;;;3.75;;
45366;SDS011;31100;55.848;37.636;2023-05-01T08:51:44;7.38;;;3.70;;
45366;SDS011;31100;55.848;37.636;2023-05-01T08:54:13;9.80;;;4.30;;
45366;SDS011;31100;55.848;37.636;2023-05-01T08:56:38;6.68;;;3.90;;
45366;SDS011;31100;55.848;37.636;2023-05-01T08:59:04;9.57;;;4.30;;
45366;SDS011;31100;55.848;37.636;2023-05-01T09:01:34;9.30;;;4.10;;
45366;SDS011;31100;55.848;37.636;2023-05-01T09:04:03;6.60;;;3.90;;
45366;SDS011;31100;55.848;37.636;2023-05-01T09:06:29;6.30;;;3.58;;
45366;SDS011;31100;55.848;37.636;2023-05-01T09:08:56;6.75;;;3.67;;
45366;SDS011;31100;55.848;37.636;2023-05-01T09:11:23;7.95;;;3.65;;
45366;SDS011;31100;55.848;37.636;2023-05-01T09:13:49;7.38;;;3.95;;
45366;SDS011;31100;55.848;37.636;2023-05-01T09:16:15;6.22;;;3.20;;
45366;SDS011;31100;55.848;37.636;2023-05-01T09:18:40;6.40;;;3.83;;
45366;SDS011;31100;55.848;37.636;2023-05-01T09:21:06;6.18;;;3.70;;
45366;SDS011;31100;55.848;37.636;2023-05-01T09:23:32;7.03;;;3.80;;
45366;SDS011;31100;55.848;37.636;2023-05-01T09:25:59;6.40;;;3.80;;
45366;SDS011;31100;55.848;37.636;2023-05-01T09:28:39;6.97;;;3.55;;
45366;SDS011;31100;55.848;37.636;2023-05-01T09:31:21;6.82;;;3.60;;
45366;SDS011;31100;55.848;37.636;2023-05-01T09:36:26;6.18;;;3.40;;
45366;SDS011;31100;55.848;37.636;2023-05-01T09:38:53;6.13;;;3.80;;
45366;SDS011;31100;55.848;37.636;2023-05-01T09:41:19;5.78;;;3.50;;
45366;SDS011;31100;55.848;37.636;2023-05-01T09:43:52;7.15;;;3.80;;
45366;SDS011;31100;55.848;37.636;2023-05-01T09:46:19;7.78;;;3.50;;
45366;SDS011;31100;55.848;37.636;2023-05-01T09:48:52;7.25;;;3.55;;
45366;SDS011;31100;55.848;37.636;2023-05-01T09:51:20;8.43;;;4.40;;
45366;SDS011;31100;55.848;37.636;2023-05-01T09:54:00;9.35;;;4.00;;
45366;SDS011;31100;55.848;37.636;2023-05-01T09:56:27;9.70;;;3.90;;
45366;SDS011;31100;55.848;37.636;2023-05-01T09:58:54;9.07;;;3.92;;
45366;SDS011;31100;55.848;37.636;2023-05-01T10:01:42;9.27;;;4.20;;
45366;SDS011;31100;55.848;37.636;2023-05-01T10:04:10;5.82;;;3.22;;
45366;SDS011;31100;55.848;37.636;2023-05-01T10:06:37;7.03;;;3.65;;
45366;SDS011;31100;55.848;37.636;2023-05-01T10:09:04;4.40;;;2.85;;
45366;SDS011;31100;55.848;37.636;2023-05-01T10:11:47;5.60;;;3.08;;
45366;SDS011;31100;55.848;37.636;2023-05-01T10:14:16;5.15;;;3.10;;
45366;SDS011;31100;55.848;37.636;2023-05-01T10:16:41;6.88;;;3.55;;
45366;SDS011;31100;55.848;37.636;2023-05-01T10:19:07;4.00;;;2.78;;
45366;SDS011;31100;55.848;37.636;2023-05-01T10:21:33;5.45;;;3.40;;
45366;SDS011;31100;55.848;37.636;2023-05-01T10:24:00;6.13;;;3.60;;
45366;SDS011;31100;55.848;37.636;2023-05-01T10:26:28;7.50;;;3.60;;
45366;SDS011;31100;55.848;37.636;2023-05-01T10:28:54;5.10;;;2.97;;
45366;SDS011;31100;55.848;37.636;2023-05-01T10:31:22;4.78;;;2.72;;
45366;SDS011;31100;55.848;37.636;2023-05-01T10:33:48;7.25;;;3.25;;
45366;SDS011;31100;55.848;37.636;2023-05-01T10:36:48;6.85;;;3.35;;
45366;SDS011;31100;55.848;37.636;2023-05-01T10:39:29;5.50;;;2.90;;
45366;SDS011;31100;55.848;37.636;2023-05-01T10:44:30;6.68;;;2.70;;
45366;SDS011;31100;55.848;37.636;2023-05-01T10:46:56;6.88;;;3.10;;
45366;SDS011;31100;55.848;37.636;2023-05-01T10:49:22;6.28;;;3.22;;
45366;SDS011;31100;55.848;37.636;2023-05-01T10:51:57;6.70;;;2.58;;
45366;SDS011;31100;55.848;37.636;2023-05-01T10:56:57;4.68;;;2.20;;
45366;SDS011;31100;55.848;37.636;2023-05-01T10:59:26;6.00;;;2.63;;
45366;SDS011;31100;55.848;37.636;2023-05-01T11:01:52;4.95;;;2.40;;
45366;SDS011;31100;55.848;37.636;2023-05-01T11:09:35;4.25;;;2.40;;
45366;SDS011;31100;55.848;37.636;2023-05-01T11:12:05;5.38;;;2.42;;
45366;SDS011;31100;55.848;37.636;2023-05-01T11:20:03;4.32;;;2.58;;
45366;SDS011;31100;55.848;37.636;2023-05-01T11:22:30;4.90;;;2.50;;
45366;SDS011;31100;55.848;37.636;2023-05-01T11:24:56;5.00;;;2.45;;
45366;SDS011;31100;55.848;37.636;2023-05-01T11:27:21;4.68;;;2.40;;
45366;SDS011;31100;55.848;37.636;2023-05-01T11:29:47;5.05;;;2.47;;
45366;SDS011;31100;55.848;37.636;2023-05-01T11:32:18;3.67;;;2.28;;
45366;SDS011;31100;55.848;37.636;2023-05-01T11:34:47;5.35;;;2.13;;
45366;SDS011;31100;55.848;37.636;2023-05-01T11:37:12;4.07;;;1.85;;
45366;SDS011;31100;55.848;37.636;2023-05-01T11:39:45;4.28;;;1.98;;
45366;SDS011;31100;55.848;37.636;2023-05-01T11:42:12;3.97;;;2.45;;
45366;SDS011;31100;55.848;37.636;2023-05-01T11:44:37;4.55;;;1.90;;
45366;SDS011;31100;55.848;37.636;2023-05-01T11:47:03;3.38;;;2.33;;
45366;SDS011;31100;55.848;37.636;2023-05-01T11:49:31;3.53;;;1.80;;
45366;SDS011;31100;55.848;37.636;2023-05-01T11:51:57;4.68;;;2.13;;
45366;SDS011;31100;55.848;37.636;2023-05-01T11:54:23;3.75;;;1.88;;
45366;SDS011;31100;55.848;37.636;2023-05-01T11:56:56;3.13;;;1.63;;
45366;SDS011;31100;55.848;37.636;2023-05-01T11:59:23;3.53;;;2.20;;
45366;SDS011;31100;55.848;37.636;2023-05-01T12:01:49;3.58;;;1.95;;
45366;SDS011;31100;55.848;37.636;2023-05-01T12:04:22;2.75;;;1.38;;
45366;SDS011;31100;55.848;37.636;2023-05-01T12:06:51;2.72;;;1.33;;
45366;SDS011;31100;55.848;37.636;2023-05-01T12:09:18;2.95;;;1.45;;
45366;SDS011;31100;55.848;37.636;2023-05-01T12:11:45;3.35;;;1.70;;
45366;SDS011;31100;55.848;37.636;2023-05-01T12:14:12;2.85;;;1.75;;
45366;SDS011;31100;55.848;37.636;2023-05-01T12:16:39;5.63;;;2.63;;
45366;SDS011;31100;55.848;37.636;2023-05-01T12:19:05;3.67;;;1.90;;
45366;SDS011;31100;55.848;37.636;2023-05-01T12:21:31;4.22;;;2.17;;
45366;SDS011;31100;55.848;37.636;2023-05-01T12:24:14;4.35;;;2.65;;
45366;SDS011;31100;55.848;37.636;2023-05-01T12:26:41;2.38;;;1.83;;
45366;SDS011;31100;55.848;37.636;2023-05-01T12:29:08;3.63;;;2.20;;
45366;SDS011;31100;55.848;37.636;2023-05-01T12:31:34;3.60;;;2.40;;
45366;SDS011;31100;55.848;37.636;2023-05-01T12:34:04;4.78;;;2.50;;
45366;SDS011;31100;55.848;37.636;2023-05-01T12:36:32;4.93;;;2.80;;
45366;SDS011;31100;55.848;37.636;2023-05-01T12:44:19;4.60;;;2.33;;
45366;SDS011;31100;55.848;37.636;2023-05-01T12:49:23;6.63;;;2.97;;
45366;SDS011;31100;55.848;37.636;2023-05-01T12:51:49;5.55;;;3.03;;
45366;SDS011;31100;55.848;37.636;2023-05-01T12:54:34;3.67;;;2.35;;
45366;SDS011;31100;55.848;37.636;2023-05-01T12:57:04;5.15;;;2.80;;
45366;SDS011;31100;55.848;37.636;2023-05-01T12:59:39;5.80;;;3.30;;
45366;SDS011;31100;55.848;37.636;2023-05-01T13:02:06;5.57;;;2.92;;
45366;SDS011;31100;55.848;37.636;2023-05-01T13:04:36;4.68;;;2.63;;
45366;SDS011;31100;55.848;37.636;2023-05-01T13:07:09;5.28;;;2.65;;
45366;SDS011;31100;55.848;37.636;2023-05-01T13:09:38;4.18;;;2.90;;
45366;SDS011;31100;55.848;37.636;2023-05-01T13:12:05;5.90;;;3.15;;
45366;SDS011;31100;55.848;37.636;2023-05-01T13:14:35;4.13;;;2.65;;
45366;SDS011;31100;55.848;37.636;2023-05-01T13:17:07;3.80;;;2.50;;
45366;SDS011;31100;55.848;37.636;2023-05-01T13:19:33;5.15;;;3.00;;
45366;SDS011;31100;55.848;37.636;2023-05-01T13:21:59;5.80;;;3.40;;
45366;SDS011;31100;55.848;37.636;2023-05-01T13:24:41;4.50;;;2.80;;
45366;SDS011;31100;55.848;37.636;2023-05-01T13:27:08;4.68;;;2.55;;
45366;SDS011;31100;55.848;37.636;2023-05-01T13:29:34;4.72;;;2.63;;
45366;SDS011;31100;55.848;37.636;2023-05-01T13:32:02;5.25;;;2.83;;
45366;SDS011;31100;55.848;37.636;2023-05-01T13:34:29;4.40;;;3.10;;
45366;SDS011;31100;55.848;37.636;2023-05-01T13:36:56;5.53;;;3.47;;
45366;SDS011;31100;55.848;37.636;2023-05-01T13:39:22;3.95;;;2.40;;
45366;SDS011;31100;55.848;37.636;2023-05-01T13:41:48;5.70;;;2.70;;
45366;SDS011;31100;55.848;37.636;2023-05-01T13:44:15;6.40;;;3.50;;
45366;SDS011;31100;55.848;37.636;2023-05-01T13:46:41;5.95;;;3.33;;
45366;SDS011;31100;55.848;37.636;2023-05-01T13:49:07;3.92;;;2.60;;
45366;SDS011;31100;55.848;37.636;2023-05-01T13:51:33;4.25;;;2.75;;
45366;SDS011;31100;55.848;37.636;2023-05-01T13:54:04;6.65;;;3.00;;
45366;SDS011;31100;55.848;37.636;2023-05-01T13:56:33;3.72;;;2.50;;
45366;SDS011;31100;55.848;37.636;2023-05-01T13:58:59;5.25;;;2.95;;
45366;SDS011;31100;55.848;37.636;2023-05-01T14:01:25;4.22;;;2.45;;
45366;SDS011;31100;55.848;37.636;2023-05-01T14:03:52;6.32;;;2.53;;
45366;SDS011;31100;55.848;37.636;2023-05-01T14:06:21;4.82;;;2.60;;
45366;SDS011;31100;55.848;37.636;2023-05-01T14:08:48;3.60;;;2.70;;
45366;SDS011;31100;55.848;37.636;2023-05-01T14:11:15;5.65;;;3.17;;
45366;SDS011;31100;55.848;37.636;2023-05-01T14:13:45;3.60;;;2.47;;
45366;SDS011;31100;55.848;37.636;2023-05-01T14:16:18;3.70;;;2.67;;
45366;SDS011;31100;55.848;37.636;2023-05-01T14:18:47;4.93;;;2.50;;
45366;SDS011;31100;55.848;37.636;2023-05-01T14:21:13;5.60;;;3.15;;
45366;SDS011;31100;55.848;37.636;2023-05-01T14:23:40;3.78;;;2.42;;
45366;SDS011;31100;55.848;37.636;2023-05-01T14:26:08;6.28;;;3.05;;
45366;SDS011;31100;55.848;37.636;2023-05-01T14:28:40;4.22;;;2.15;;
45366;SDS011;31100;55.848;37.636;2023-05-01T14:31:28;3.60;;;2.08;;
45366;SDS011;31100;55.848;37.636;2023-05-01T14:34:01;4.15;;;2.33;;
45366;SDS011;31100;55.848;37.636;2023-05-01T14:36:28;4.88;;;2.45;;
45366;SDS011;31100;55.848;37.636;2023-05-01T14:38:58;4.70;;;2.20;;
45366;SDS011;31100;55.848;37.636;2023-05-01T14:41:24;2.90;;;1.75;;
45366;SDS011;31100;55.848;37.636;2023-05-01T14:43:50;3.63;;;2.00;;
45366;SDS011;31100;55.848;37.636;2023-05-01T14:46:26;3.28;;;1.98;;
45366;SDS011;31100;55.848;37.636;2023-05-01T14:48:54;3.20;;;2.00;;
45366;SDS011;31100;55.848;37.636;2023-05-01T14:51:19;4.22;;;1.73;;
45366;SDS011;31100;55.848;37.636;2023-05-01T14:53:45;3.20;;;2.00;;
45366;SDS011;31100;55.848;37.636;2023-05-01T14:56:11;3.30;;;2.00;;
45366;SDS011;31100;55.848;37.636;2023-05-01T14:58:37;3.50;;;1.95;;
45366;SDS011;31100;55.848;37.636;2023-05-01T15:01:03;3.67;;;1.90;;
45366;SDS011;31100;55.848;37.636;2023-05-01T15:03:28;3.75;;;2.05;;
45366;SDS011;31100;55.848;37.636;2023-05-01T15:05:54;3.92;;;2.20;;
45366;SDS011;31100;55.848;37.636;2023-05-01T15:08:21;5.28;;;2.00;;
45366;SDS011;31100;55.848;37.636;2023-05-01T15:10:47;2.55;;;1.70;;
45366;SDS011;31100;55.848;37.636;2023-05-01T15:13:13;3.45;;;1.80;;
45366;SDS011;31100;55.848;37.636;2023-05-01T15:15:38;2.67;;;1.70;;
45366;SDS011;31100;55.848;37.636;2023-05-01T15:18:07;2.65;;;1.70;;
45366;SDS011;31100;55.848;37.636;2023-05-01T15:20:32;2.95;;;1.65;;
45366;SDS011;31100;55.848;37.636;2023-05-01T15:22:58;3.10;;;1.60;;
45366;SDS011;31100;55.848;37.636;2023-05-01T15:25:23;3.22;;;1.95;;
45366;SDS011;31100;55.848;37.636;2023-05-01T15:27:49;2.97;;;1.80;;